Time;durP1;ratioP1;P1;durP2;ratioP2;P2;SDS_P1;SDS_P2;PMS_P1;PMS_P2;Temp;Humidity;BMP_temperature;BMP_pressure;BME280_temperature;BME280_humidity;BME280_pressure;Samples;Min_cycle;Max_cycle;Signal;HPM_P1;HPM_P2
2021/01/05 00:02:08;;;;;;;23.88;12.63;;;7.90;99.90;;;;;;5084067;28;20064;-73
2021/01/05 00:04:34;;;;;;;19.15;11.40;;;8.00;99.90;;;;;;5091515;28;20025;-77
2021/01/05 00:07:02;;;;;;;24.60;14.38;;;7.90;99.90;;;;;;5091578;28;20023;-75
2021/01/05 00:09:28;;;;;;;19.83;11.77;;;7.90;99.90;;;;;;5082277;28;20470;-79
2021/01/05 00:12:06;;;;;;;21.38;12.50;;;7.90;99.90;;;;;;5088486;28;20032;-74
2021/01/05 00:14:32;;;;;;;14.70;10.10;;;7.90;99.90;;;;;;5090198;28;20028;-72
2021/01/05 00:16:58;;;;;;;17.85;11.38;;;8.10;99.90;;;;;;5060421;28;20073;-72
2021/01/05 00:19:25;;;;;;;20.13;12.48;;;8.30;99.90;;;;;;5066268;28;20041;-73
2021/01/05 00:21:54;;;;;;;17.25;9.27;;;8.40;99.90;;;;;;5088520;28;20020;-72
2021/01/05 00:24:20;;;;;;;14.90;10.13;;;8.30;99.90;;;;;;5061430;28;20044;-76
2021/01/05 00:26:46;;;;;;;17.00;11.07;;;8.00;99.90;;;;;;5059959;28;20036;-76
2021/01/05 00:29:12;;;;;;;14.93;9.93;;;8.00;99.90;;;;;;5094407;28;20107;-75
2021/01/05 00:31:38;;;;;;;18.25;10.32;;;8.00;99.90;;;;;;5086697;28;20047;-74
2021/01/05 00:34:06;;;;;;;17.40;9.93;;;7.90;99.90;;;;;;5087939;28;20043;-72
2021/01/05 00:36:32;;;;;;;15.02;9.23;;;8.20;99.90;;;;;;5088336;28;20068;-72
2021/01/05 00:38:59;;;;;;;17.98;11.27;;;8.20;99.90;;;;;;5089712;28;20042;-75
2021/01/05 00:41:25;;;;;;;18.13;11.32;;;8.10;99.90;;;;;;5091158;28;20024;-76
2021/01/05 00:43:51;;;;;;;18.42;10.48;;;8.10;99.90;;;;;;5091756;28;20037;-75
2021/01/05 00:46:19;;;;;;;13.85;9.25;;;7.80;99.90;;;;;;5079685;28;20024;-72
2021/01/05 00:48:45;;;;;;;19.08;11.48;;;8.20;99.90;;;;;;5098696;28;20031;-72
2021/01/05 00:51:14;;;;;;;18.25;11.00;;;7.80;99.90;;;;;;5098346;28;20031;-75
2021/01/05 00:53:40;;;;;;;13.82;10.07;;;7.90;99.90;;;;;;5090573;28;20016;-74
2021/01/05 00:56:06;;;;;;;15.77;9.35;;;7.90;99.90;;;;;;5090884;28;20103;-76
2021/01/05 00:58:32;;;;;;;12.13;8.10;;;7.90;99.90;;;;;;5080602;28;20024;-74
2021/01/05 01:00:58;;;;;;;12.20;8.27;;;7.90;99.90;;;;;;5091579;28;20035;-73
2021/01/05 01:03:25;;;;;;;10.40;6.65;;;7.80;99.90;;;;;;5090683;28;20222;-73
2021/01/05 01:05:51;;;;;;;15.13;7.57;;;8.10;99.90;;;;;;5091014;28;20107;-74
2021/01/05 01:08:18;;;;;;;10.73;7.32;;;8.20;99.90;;;;;;5091188;28;20371;-75
2021/01/05 01:10:44;;;;;;;11.88;7.30;;;7.90;99.90;;;;;;5091979;28;20150;-75
2021/01/05 01:13:11;;;;;;;9.77;7.03;;;7.90;99.90;;;;;;5094633;28;20032;-74
2021/01/05 01:15:38;;;;;;;11.27;6.55;;;8.00;99.90;;;;;;5088725;28;20024;-74
2021/01/05 01:18:05;;;;;;;11.32;7.72;;;7.80;99.90;;;;;;5093275;28;20024;-73
2021/01/05 01:20:32;;;;;;;12.43;7.05;;;7.80;99.90;;;;;;5095075;28;20024;-71
2021/01/05 01:22:58;;;;;;;13.48;6.80;;;8.00;99.90;;;;;;5095238;28;20466;-72
2021/01/05 01:25:24;;;;;;;12.05;7.63;;;7.90;99.90;;;;;;5094564;28;20047;-71
2021/01/05 01:27:50;;;;;;;11.43;7.32;;;8.00;99.90;;;;;;5095481;28;20027;-72
2021/01/05 01:30:18;;;;;;;13.75;7.55;;;8.00;99.90;;;;;;5064901;28;20451;-73
2021/01/05 01:32:44;;;;;;;15.55;7.35;;;7.30;99.90;;;;;;5082934;28;20063;-72
2021/01/05 01:35:11;;;;;;;12.98;7.82;;;6.10;99.90;;;;;;5095307;28;20032;-72
2021/01/05 01:37:37;;;;;;;10.05;6.78;;;6.90;99.90;;;;;;5074361;28;20045;-73
2021/01/05 01:40:05;;;;;;;12.60;6.93;;;6.70;99.90;;;;;;5075832;28;20036;-72
2021/01/05 01:42:31;;;;;;;10.73;7.25;;;6.30;99.90;;;;;;5094032;28;20070;-73
2021/01/05 01:44:56;;;;;;;10.23;6.95;;;7.30;99.90;;;;;;5080928;28;20115;-72
2021/01/05 01:47:35;;;;;;;11.77;7.47;;;8.10;99.90;;;;;;5093953;28;20424;-79
2021/01/05 01:50:04;;;;;;;10.05;6.72;;;7.80;99.90;;;;;;5080902;28;20020;-73
2021/01/05 01:52:57;;;;;;;9.77;6.63;;;7.80;99.90;;;;;;5094980;28;20474;-71
2021/01/05 01:55:38;;;;;;;10.50;6.57;;;6.10;99.90;;;;;;5065080;28;20454;-73
2021/01/05 01:58:25;;;;;;;11.95;6.57;;;7.90;99.90;;;;;;5094324;28;20147;-74
2021/01/05 02:01:09;;;;;;;8.00;5.75;;;8.20;99.90;;;;;;5094379;28;20393;-73
2021/01/05 02:03:50;;;;;;;9.95;5.43;;;7.00;99.90;;;;;;5094393;28;20020;-73
2021/01/05 02:06:53;;;;;;;10.88;6.60;;;7.70;99.90;;;;;;5094224;28;20103;-73
2021/01/05 02:09:54;;;;;;;10.40;6.47;;;7.70;99.90;;;;;;5094375;28;20107;-74
2021/01/05 02:13:08;;;;;;;10.35;6.00;;;7.70;99.90;;;;;;4992105;28;20027;-72
2021/01/05 02:15:45;;;;;;;10.30;6.15;;;8.20;99.90;;;;;;4981152;28;20556;-73
2021/01/05 02:18:52;;;;;;;8.80;6.00;;;7.70;99.90;;;;;;4991558;28;20392;-74
2021/01/05 02:21:23;;;;;;;9.05;5.97;;;7.70;99.90;;;;;;4973876;28;20105;-71
2021/01/05 02:24:07;;;;;;;9.57;5.95;;;7.70;99.90;;;;;;4999886;28;20026;-78
2021/01/05 02:26:51;;;;;;;9.70;6.25;;;7.20;99.90;;;;;;4991047;28;20038;-74
2021/01/05 02:29:24;;;;;;;8.45;5.35;;;7.20;99.90;;;;;;4991610;28;20505;-74
2021/01/05 02:32:00;;;;;;;8.55;5.63;;;7.80;99.90;;;;;;4991101;28;20077;-75
2021/01/05 02:35:04;;;;;;;9.20;5.32;;;7.70;99.90;;;;;;4991509;28;20028;-75
2021/01/05 02:37:39;;;;;;;9.80;5.93;;;7.30;99.90;;;;;;4990800;28;20042;-77
2021/01/05 02:40:32;;;;;;;10.13;6.30;;;7.00;99.90;;;;;;4990791;28;20034;-75
2021/01/05 02:43:01;;;;;;;10.30;6.30;;;7.70;99.90;;;;;;4988926;28;20039;-76
2021/01/05 02:45:35;;;;;;;8.85;6.28;;;8.50;99.90;;;;;;5005532;28;20028;-75
2021/01/05 02:48:38;;;;;;;10.65;7.85;;;8.10;99.90;;;;;;5092500;28;20024;-74
2021/01/05 02:51:25;;;;;;;13.27;8.63;;;7.80;99.90;;;;;;5092087;28;20484;-75
2021/01/05 02:54:28;;;;;;;12.38;7.97;;;7.70;99.90;;;;;;5074631;28;20052;-74
2021/01/05 02:57:25;;;;;;;14.07;8.50;;;7.70;99.90;;;;;;5090885;28;20103;-74
2021/01/05 03:00:25;;;;;;;16.67;9.30;;;7.60;99.90;;;;;;5090528;28;20028;-76
2021/01/05 03:03:12;;;;;;;13.13;8.60;;;7.80;99.90;;;;;;5088455;28;20024;-74
2021/01/05 03:05:50;;;;;;;10.57;6.78;;;8.60;99.90;;;;;;5093878;28;20016;-75
2021/01/05 03:08:26;;;;;;;12.48;8.05;;;7.80;99.90;;;;;;5093967;28;20032;-74
2021/01/05 03:11:04;;;;;;;11.60;7.75;;;8.00;99.90;;;;;;5094071;28;20020;-74
2021/01/05 03:13:51;;;;;;;16.58;9.45;;;7.70;99.90;;;;;;5094092;28;20024;-74
2021/01/05 03:16:16;;;;;;;18.83;11.23;;;7.70;99.90;;;;;;5085616;28;20485;-72
2021/01/05 03:18:58;;;;;;;24.17;13.88;;;8.20;99.90;;;;;;5091723;28;20024;-74
2021/01/05 03:21:46;;;;;;;30.80;13.00;;;7.80;99.90;;;;;;5090477;28;20029;-74
2021/01/05 03:24:14;;;;;;;31.60;14.13;;;8.00;99.90;;;;;;5091731;28;20040;-73
2021/01/05 03:26:48;;;;;;;31.25;13.48;;;7.50;99.90;;;;;;5093881;28;20101;-73
2021/01/05 03:29:16;;;;;;;32.30;14.55;;;7.60;99.90;;;;;;5093352;28;20016;-72
2021/01/05 03:31:48;;;;;;;43.83;16.33;;;7.20;99.90;;;;;;5085168;28;20197;-74
2021/01/05 03:34:15;;;;;;;35.75;14.57;;;8.30;99.90;;;;;;5091278;28;20047;-72
2021/01/05 03:36:41;;;;;;;26.08;14.05;;;7.70;99.90;;;;;;5093136;28;20028;-73
2021/01/05 03:39:08;;;;;;;22.45;12.43;;;7.80;99.90;;;;;;5082392;28;20082;-74
2021/01/05 03:41:34;;;;;;;14.15;8.52;;;8.60;99.90;;;;;;5093266;28;20052;-73
2021/01/05 03:44:00;;;;;;;10.13;6.40;;;7.70;99.90;;;;;;5074308;28;20035;-73
2021/01/05 03:46:27;;;;;;;11.00;7.70;;;7.00;99.90;;;;;;5093701;28;20052;-73
2021/01/05 03:48:53;;;;;;;11.70;7.85;;;8.00;99.90;;;;;;5097289;28;20059;-77
2021/01/05 03:51:19;;;;;;;12.45;8.13;;;8.60;99.90;;;;;;5088779;28;20053;-71
2021/01/05 03:53:45;;;;;;;13.52;8.05;;;8.10;99.90;;;;;;5068925;28;20052;-74
2021/01/05 03:56:11;;;;;;;12.23;8.65;;;7.70;99.90;;;;;;5088206;28;20370;-72
2021/01/05 03:58:37;;;;;;;18.20;9.20;;;7.70;99.90;;;;;;5093441;28;20097;-73
2021/01/05 04:01:03;;;;;;;17.45;10.27;;;8.10;99.90;;;;;;5093249;28;20024;-74
2021/01/05 04:03:29;;;;;;;21.10;10.25;;;8.10;99.90;;;;;;5092829;28;20035;-73
2021/01/05 04:05:54;;;;;;;15.30;10.55;;;8.40;99.90;;;;;;5093467;28;20383;-73
2021/01/05 04:08:20;;;;;;;20.55;12.65;;;7.70;99.90;;;;;;5074875;28;20062;-73
2021/01/05 04:10:46;;;;;;;18.58;12.48;;;7.60;99.90;;;;;;5065407;28;20067;-74
2021/01/05 04:13:12;;;;;;;22.10;13.20;;;8.00;99.90;;;;;;5088396;28;20366;-73
2021/01/05 04:15:38;;;;;;;23.13;12.85;;;8.50;99.90;;;;;;5091578;28;20386;-73
2021/01/05 04:18:04;;;;;;;16.98;11.45;;;8.30;99.90;;;;;;5087125;28;20095;-71
2021/01/05 04:20:31;;;;;;;24.08;12.70;;;7.80;99.90;;;;;;5060935;28;20025;-72
2021/01/05 04:22:58;;;;;;;40.88;21.00;;;8.00;99.90;;;;;;5091655;28;20096;-74
2021/01/05 04:25:24;;;;;;;25.65;15.27;;;7.50;99.90;;;;;;5090447;28;20024;-73
2021/01/05 04:27:51;;;;;;;25.45;13.57;;;7.40;99.90;;;;;;5060640;28;20531;-72
2021/01/05 04:30:43;;;;;;;29.52;15.55;;;7.60;99.90;;;;;;5088870;28;20466;-71
2021/01/05 04:33:11;;;;;;;26.17;13.65;;;7.70;99.90;;;;;;5092626;28;20075;-71
2021/01/05 04:35:38;;;;;;;25.05;14.07;;;7.80;99.90;;;;;;5092973;28;20103;-72
2021/01/05 04:38:05;;;;;;;27.55;14.35;;;7.60;99.90;;;;;;5055776;28;20027;-74
2021/01/05 04:40:34;;;;;;;27.13;14.82;;;7.50;99.90;;;;;;5084822;28;20048;-74
2021/01/05 04:43:21;;;;;;;24.83;14.32;;;7.50;99.90;;;;;;5087988;28;20472;-71
2021/01/05 04:46:11;;;;;;;24.30;13.35;;;7.50;99.90;;;;;;5056159;28;20032;-74
2021/01/05 04:48:41;;;;;;;25.77;15.50;;;7.30;99.90;;;;;;5066093;28;20493;-74
2021/01/05 04:51:37;;;;;;;28.15;15.57;;;7.40;99.90;;;;;;5097597;28;20032;-75
2021/01/05 04:54:43;;;;;;;28.80;16.88;;;7.40;99.90;;;;;;5099122;28;20120;-75
2021/01/05 04:57:18;;;;;;;30.17;15.25;;;7.40;99.90;;;;;;5070387;28;20040;-73
2021/01/05 04:59:56;;;;;;;26.63;16.00;;;7.30;99.90;;;;;;5092630;28;20466;-73
2021/01/05 05:02:28;;;;;;;30.50;17.15;;;7.40;99.90;;;;;;5096312;28;20024;-74
2021/01/05 05:05:23;;;;;;;25.75;16.65;;;7.30;99.90;;;;;;5094566;28;20017;-74
2021/01/05 05:08:20;;;;;;;33.08;17.83;;;7.40;99.90;;;;;;5082336;28;20542;-73
2021/01/05 05:10:53;;;;;;;34.53;17.65;;;7.40;99.90;;;;;;5077398;28;20032;-73
2021/01/05 05:13:31;;;;;;;35.50;16.42;;;7.50;99.90;;;;;;5099918;28;20133;-75
2021/01/05 05:16:33;;;;;;;36.35;17.55;;;7.40;99.90;;;;;;5096562;28;20484;-74
2021/01/05 05:19:33;;;;;;;35.60;19.35;;;7.40;99.90;;;;;;5079374;28;20457;-72
2021/01/05 05:22:15;;;;;;;34.63;16.63;;;7.40;99.90;;;;;;5096096;28;20485;-74
2021/01/05 05:24:56;;;;;;;27.23;14.90;;;7.40;99.90;;;;;;5070856;28;20028;-73
2021/01/05 05:28:12;;;;;;;35.58;19.08;;;7.40;99.90;;;;;;5095208;28;20578;-74
2021/01/05 05:30:40;;;;;;;39.70;21.02;;;7.40;99.90;;;;;;5025036;28;21212;-73
2021/01/05 05:33:18;;;;;;;44.33;23.02;;;7.30;99.90;;;;;;5031386;28;20052;-72
2021/01/05 05:36:08;;;;;;;48.25;26.63;;;7.30;99.90;;;;;;5028066;28;20503;-73
2021/01/05 05:39:18;;;;;;;40.70;20.08;;;7.30;99.90;;;;;;5030055;28;20033;-72
2021/01/05 05:41:58;;;;;;;42.33;20.45;;;7.30;99.90;;;;;;5023910;28;20037;-72
2021/01/05 05:44:44;;;;;;;40.28;22.35;;;7.30;99.90;;;;;;5029392;28;20033;-72
2021/01/05 05:47:29;;;;;;;25.77;17.13;;;7.30;99.90;;;;;;5034558;28;20080;-72
2021/01/05 05:50:15;;;;;;;30.40;16.17;;;7.30;99.90;;;;;;5021152;28;20025;-73
2021/01/05 05:53:08;;;;;;;35.42;21.17;;;7.30;99.90;;;;;;5022000;28;20076;-73
2021/01/05 05:55:42;;;;;;;30.98;18.40;;;7.30;99.90;;;;;;5021085;28;20042;-71
2021/01/05 05:58:09;;;;;;;27.95;16.60;;;7.30;99.90;;;;;;5011684;28;20053;-74
2021/01/05 06:00:39;;;;;;;33.70;18.65;;;7.20;99.90;;;;;;5036401;28;20505;-73
2021/01/05 06:03:09;;;;;;;34.88;19.13;;;7.20;99.90;;;;;;5091485;28;20407;-73
2021/01/05 06:05:36;;;;;;;38.67;19.73;;;7.20;99.90;;;;;;5094752;28;20089;-72
2021/01/05 06:08:04;;;;;;;32.97;18.73;;;7.10;99.90;;;;;;5094770;28;20098;-72
2021/01/05 06:10:30;;;;;;;39.55;21.45;;;7.20;99.90;;;;;;5094892;28;20052;-73
2021/01/05 06:12:57;;;;;;;42.97;20.90;;;7.20;99.90;;;;;;5089492;28;20032;-72
2021/01/05 06:15:22;;;;;;;33.63;20.60;;;7.20;99.90;;;;;;5094774;28;20024;-73
2021/01/05 06:17:48;;;;;;;36.67;20.45;;;7.20;99.90;;;;;;5094814;28;20089;-71
2021/01/05 06:20:15;;;;;;;34.95;19.67;;;7.20;99.90;;;;;;5094222;28;20024;-72
2021/01/05 06:22:41;;;;;;;30.75;17.10;;;7.20;99.90;;;;;;5094557;28;20545;-72
2021/01/05 06:25:09;;;;;;;35.20;19.48;;;7.10;99.90;;;;;;5094413;28;20107;-77
2021/01/05 06:27:35;;;;;;;30.88;18.50;;;7.00;99.90;;;;;;5094939;28;20024;-73
2021/01/05 06:30:03;;;;;;;40.28;20.40;;;6.90;99.90;;;;;;5073775;28;20074;-77
2021/01/05 06:32:28;;;;;;;30.30;19.35;;;6.90;99.90;;;;;;5095073;28;20044;-73
2021/01/05 06:34:54;;;;;;;30.60;19.33;;;6.90;99.90;;;;;;5082300;28;20032;-73
2021/01/05 06:37:20;;;;;;;36.15;21.58;;;6.90;99.90;;;;;;5092511;28;20122;-73
2021/01/05 06:39:46;;;;;;;38.45;21.45;;;6.90;99.90;;;;;;5094267;28;20040;-76
2021/01/05 06:42:12;;;;;;;39.72;21.63;;;6.90;99.90;;;;;;5094969;28;20404;-73
2021/01/05 06:44:38;;;;;;;41.67;21.80;;;6.90;99.90;;;;;;5081031;28;20032;-72
2021/01/05 06:47:04;;;;;;;38.90;21.42;;;6.90;99.90;;;;;;5096567;28;20477;-74
2021/01/05 06:49:30;;;;;;;46.42;23.60;;;6.90;99.90;;;;;;5096532;28;20032;-72
2021/01/05 06:51:56;;;;;;;41.92;22.92;;;6.90;99.90;;;;;;5078630;28;20051;-72
2021/01/05 06:54:22;;;;;;;39.75;21.85;;;6.80;99.90;;;;;;5065272;28;20409;-72
2021/01/05 06:56:55;;;;;;;43.05;22.13;;;6.90;99.90;;;;;;5097383;28;20020;-72
2021/01/05 06:59:22;;;;;;;39.92;24.00;;;6.90;99.90;;;;;;5093688;28;20497;-72
2021/01/05 07:01:57;;;;;;;41.33;23.35;;;6.90;99.90;;;;;;5087989;28;20041;-72
2021/01/05 07:04:23;;;;;;;42.13;20.15;;;6.90;99.90;;;;;;5088607;28;20032;-76
2021/01/05 07:06:50;;;;;;;42.83;23.17;;;6.90;99.90;;;;;;5093196;28;20055;-73
2021/01/05 07:09:17;;;;;;;44.03;22.85;;;6.90;99.90;;;;;;5093388;28;20032;-73
2021/01/05 07:11:44;;;;;;;44.33;25.00;;;6.90;99.90;;;;;;5093815;28;20410;-73
2021/01/05 07:14:11;;;;;;;47.70;26.25;;;7.00;99.90;;;;;;5093762;28;20028;-74
2021/01/05 07:16:37;;;;;;;43.90;23.88;;;7.00;99.90;;;;;;5093040;28;20428;-74
2021/01/05 07:19:03;;;;;;;39.33;23.65;;;7.10;99.90;;;;;;5075237;28;20032;-73
2021/01/05 07:21:29;;;;;;;49.35;27.73;;;7.10;99.90;;;;;;5093833;28;20149;-73
2021/01/05 07:23:54;;;;;;;43.58;25.58;;;7.20;99.90;;;;;;5091772;28;20036;-77
2021/01/05 07:26:20;;;;;;;48.13;25.00;;;7.20;99.90;;;;;;5091970;28;20081;-72
2021/01/05 07:28:46;;;;;;;45.60;26.27;;;7.20;99.90;;;;;;5092005;28;20020;-71
2021/01/05 07:31:12;;;;;;;60.60;31.38;;;7.10;99.90;;;;;;5092520;28;20595;-73
2021/01/05 07:33:38;;;;;;;51.78;28.05;;;7.10;99.90;;;;;;5091535;28;20023;-72
2021/01/05 07:36:06;;;;;;;53.63;27.98;;;7.10;99.90;;;;;;5091822;28;20485;-72
2021/01/05 07:38:32;;;;;;;47.95;26.60;;;7.10;99.90;;;;;;5092036;28;20040;-74
2021/01/05 07:40:58;;;;;;;50.13;27.02;;;7.10;99.90;;;;;;5070659;28;20046;-73
2021/01/05 07:43:24;;;;;;;39.63;24.92;;;7.20;99.90;;;;;;5091181;28;20036;-73
2021/01/05 07:45:49;;;;;;;50.67;30.08;;;7.30;99.90;;;;;;5073735;28;20040;-73
2021/01/05 07:48:15;;;;;;;44.72;25.63;;;7.30;99.90;;;;;;5091386;28;20035;-71
2021/01/05 07:50:41;;;;;;;51.20;25.98;;;7.30;99.90;;;;;;5091743;28;20017;-75
2021/01/05 07:53:07;;;;;;;44.40;23.80;;;7.40;99.90;;;;;;5092072;28;20032;-72
2021/01/05 07:55:33;;;;;;;45.70;25.48;;;7.40;99.90;;;;;;5073319;28;20028;-71
2021/01/05 07:57:59;;;;;;;45.95;25.80;;;7.60;99.90;;;;;;5091316;28;20070;-73
2021/01/05 08:00:28;;;;;;;40.65;24.00;;;7.90;99.90;;;;;;5091433;28;20031;-72
2021/01/05 08:02:56;;;;;;;43.35;24.35;;;8.30;99.90;;;;;;5070278;28;20063;-72
2021/01/05 08:05:24;;;;;;;47.60;27.45;;;8.50;99.90;;;;;;5090602;28;20024;-77
2021/01/05 08:07:57;;;;;;;33.97;20.05;;;8.70;99.90;;;;;;5092884;28;20024;-78
2021/01/05 08:10:29;;;;;;;33.47;20.83;;;8.70;99.90;;;;;;5090614;28;20057;-72
2021/01/05 08:12:56;;;;;;;26.05;15.75;;;8.80;99.90;;;;;;5092946;28;20039;-74
2021/01/05 08:15:24;;;;;;;33.47;19.17;;;8.80;99.90;;;;;;5092403;28;20028;-74
2021/01/05 08:17:51;;;;;;;34.20;18.33;;;8.70;99.90;;;;;;5093111;28;20046;-74
2021/01/05 08:20:19;;;;;;;37.22;19.60;;;8.60;99.90;;;;;;5093751;28;20649;-75
2021/01/05 08:22:46;;;;;;;37.80;21.23;;;8.70;99.90;;;;;;5078579;28;20035;-80
2021/01/05 08:25:14;;;;;;;31.88;20.60;;;8.80;99.90;;;;;;5096836;28;20028;-73
2021/01/05 08:27:41;;;;;;;34.90;21.17;;;8.80;99.90;;;;;;5076427;28;20032;-77
2021/01/05 08:30:08;;;;;;;40.05;23.38;;;8.80;99.90;;;;;;5092498;28;20032;-77
2021/01/05 08:32:34;;;;;;;37.95;22.17;;;9.00;99.90;;;;;;5096763;28;20075;-75
2021/01/05 08:34:59;;;;;;;32.63;18.50;;;9.10;99.90;;;;;;5096141;28;20060;-73
2021/01/05 08:37:25;;;;;;;35.50;21.40;;;9.10;99.90;;;;;;5095684;28;20020;-76
2021/01/05 08:39:51;;;;;;;30.45;21.10;;;9.20;99.90;;;;;;5095821;28;20047;-73
2021/01/05 08:42:17;;;;;;;34.97;20.10;;;9.30;99.90;;;;;;5076228;28;20089;-76
2021/01/05 08:44:43;;;;;;;44.10;25.38;;;9.40;99.90;;;;;;5095635;28;20383;-70
2021/01/05 08:47:09;;;;;;;36.03;21.58;;;9.60;99.90;;;;;;5095593;28;20024;-73
2021/01/05 08:49:35;;;;;;;24.67;14.52;;;9.60;99.90;;;;;;5096280;28;20043;-71
2021/01/05 08:52:13;;;;;;;25.23;14.38;;;9.60;99.90;;;;;;5095837;28;20078;-70
2021/01/05 08:54:39;;;;;;;29.13;16.20;;;9.60;99.90;;;;;;5076250;28;20028;-70
2021/01/05 08:57:05;;;;;;;26.10;16.25;;;9.60;99.90;;;;;;5095974;28;20020;-72
2021/01/05 08:59:30;;;;;;;28.00;15.25;;;9.70;99.90;;;;;;5095879;28;20060;-71
2021/01/05 09:01:56;;;;;;;22.80;14.13;;;9.80;99.90;;;;;;5096352;28;20070;-74
2021/01/05 09:04:22;;;;;;;23.77;14.75;;;9.90;99.90;;;;;;5097498;28;20431;-72
2021/01/05 09:06:49;;;;;;;24.27;15.23;;;9.90;99.90;;;;;;5096209;28;20048;-73
2021/01/05 09:09:18;;;;;;;23.30;13.02;;;10.00;99.90;;;;;;5096149;28;20032;-71
2021/01/05 09:11:50;;;;;;;24.88;14.02;;;10.00;99.90;;;;;;5095854;28;20012;-73
2021/01/05 09:14:15;;;;;;;16.73;10.93;;;9.90;99.90;;;;;;5086312;28;20095;-74
2021/01/05 09:16:41;;;;;;;14.50;9.43;;;9.80;99.90;;;;;;5091547;28;20146;-73
2021/01/05 09:19:07;;;;;;;17.45;12.02;;;9.90;99.90;;;;;;5069768;28;20081;-70
2021/01/05 09:21:33;;;;;;;16.30;10.45;;;9.60;99.90;;;;;;5074222;28;20455;-73
2021/01/05 09:24:00;;;;;;;12.48;9.25;;;9.70;99.90;;;;;;5094773;28;20122;-75
2021/01/05 09:26:29;;;;;;;19.52;10.30;;;9.90;99.90;;;;;;5077299;28;20020;-77
2021/01/05 09:28:55;;;;;;;15.70;9.40;;;10.00;99.90;;;;;;5092706;28;20024;-72
2021/01/05 09:31:21;;;;;;;17.30;10.48;;;10.10;99.90;;;;;;5094899;28;20060;-72
2021/01/05 09:33:47;;;;;;;12.82;9.63;;;10.20;99.90;;;;;;5093160;28;20019;-72
2021/01/05 09:36:14;;;;;;;26.83;10.63;;;10.40;99.90;;;;;;5077062;28;20474;-74
2021/01/05 09:38:41;;;;;;;19.17;10.30;;;10.40;99.90;;;;;;5077107;28;20123;-76
2021/01/05 09:41:18;;;;;;;21.75;10.75;;;10.30;99.90;;;;;;5094776;28;20053;-71
2021/01/05 09:43:44;;;;;;;17.13;9.25;;;10.50;99.90;;;;;;5084416;28;20052;-78
2021/01/05 09:46:13;;;;;;;12.45;8.55;;;10.70;99.90;;;;;;5091450;28;20066;-74
2021/01/05 09:48:39;;;;;;;14.10;9.27;;;10.80;99.90;;;;;;5077507;28;20420;-76
2021/01/05 09:51:05;;;;;;;16.00;9.52;;;11.00;99.90;;;;;;5095658;28;20027;-72
2021/01/05 09:53:31;;;;;;;24.98;11.70;;;10.90;99.90;;;;;;5094932;28;20032;-71
2021/01/05 09:55:57;;;;;;;27.65;16.55;;;11.00;99.90;;;;;;5094989;28;20070;-71
2021/01/05 09:58:22;;;;;;;19.52;11.50;;;11.20;99.90;;;;;;5095601;28;20059;-71
2021/01/05 10:00:48;;;;;;;16.92;9.32;;;11.40;99.90;;;;;;5095475;28;20133;-74
2021/01/05 10:03:14;;;;;;;15.00;9.82;;;11.50;99.90;;;;;;5095409;28;20059;-75
2021/01/05 10:05:39;;;;;;;19.30;11.15;;;11.50;99.90;;;;;;5095221;28;20514;-72
2021/01/05 10:08:05;;;;;;;33.85;19.67;;;11.50;99.90;;;;;;5093734;28;20463;-74
2021/01/05 10:10:31;;;;;;;30.23;20.40;;;11.50;99.90;;;;;;5095451;28;20347;-73
2021/01/05 10:12:57;;;;;;;39.70;22.52;;;11.60;99.90;;;;;;5094868;28;20035;-72
2021/01/05 10:15:24;;;;;;;35.40;19.48;;;11.60;99.90;;;;;;5094685;28;20085;-73
2021/01/05 10:17:50;;;;;;;38.33;20.15;;;11.60;99.90;;;;;;5095778;28;20076;-74
2021/01/05 10:20:19;;;;;;;30.38;18.45;;;11.70;99.90;;;;;;5094819;28;20115;-75
2021/01/05 10:22:46;;;;;;;37.97;19.85;;;11.60;99.90;;;;;;5093997;28;20028;-75
2021/01/05 10:25:12;;;;;;;32.97;17.33;;;11.70;99.90;;;;;;5094571;28;20035;-73
2021/01/05 10:27:38;;;;;;;28.73;18.10;;;11.60;99.90;;;;;;5095101;28;20028;-74
2021/01/05 10:30:07;;;;;;;30.27;15.77;;;11.40;99.90;;;;;;5094266;28;20032;-72
2021/01/05 10:32:32;;;;;;;49.00;23.52;;;11.60;99.90;;;;;;5089726;28;20055;-74
2021/01/05 10:34:58;;;;;;;41.78;24.83;;;11.70;99.90;;;;;;5087386;28;20021;-72
2021/01/05 10:37:24;;;;;;;35.17;21.65;;;11.80;99.90;;;;;;5092620;28;20020;-72
2021/01/05 10:39:50;;;;;;;42.92;23.60;;;11.60;99.90;;;;;;5093984;28;20028;-74
2021/01/05 10:42:16;;;;;;;41.28;25.20;;;11.70;99.90;;;;;;5094075;28;20027;-73
2021/01/05 10:44:41;;;;;;;34.22;21.88;;;11.70;99.90;;;;;;5088043;28;20065;-74
2021/01/05 10:47:09;;;;;;;40.10;26.98;;;11.70;99.90;;;;;;5093066;28;20039;-74
2021/01/05 10:49:35;;;;;;;41.75;24.65;;;11.60;99.90;;;;;;5070968;28;20040;-73
2021/01/05 10:52:03;;;;;;;40.78;23.83;;;11.70;99.90;;;;;;5094739;28;20031;-74
2021/01/05 10:54:29;;;;;;;33.88;19.77;;;11.70;99.90;;;;;;5093887;28;20024;-73
2021/01/05 10:57:03;;;;;;;45.42;26.92;;;11.80;99.90;;;;;;5092935;28;20436;-73
2021/01/05 10:59:30;;;;;;;40.25;23.40;;;11.50;99.90;;;;;;5090436;28;20036;-72
2021/01/05 11:01:57;;;;;;;33.50;21.27;;;11.30;99.90;;;;;;5093121;28;20077;-71
2021/01/05 11:04:23;;;;;;;35.92;20.67;;;11.50;99.90;;;;;;5092493;28;20466;-73
2021/01/05 11:06:54;;;;;;;35.80;22.70;;;11.50;99.90;;;;;;5092339;28;20021;-76
2021/01/05 11:09:20;;;;;;;24.42;17.65;;;11.50;99.90;;;;;;5074436;28;20036;-73
2021/01/05 11:11:47;;;;;;;34.95;22.15;;;11.60;99.90;;;;;;5092364;28;20054;-77
2021/01/05 11:14:16;;;;;;;33.05;19.40;;;11.60;99.90;;;;;;5092953;28;20035;-74
2021/01/05 11:16:48;;;;;;;34.83;22.15;;;11.60;99.90;;;;;;5093154;28;20027;-72
2021/01/05 11:19:15;;;;;;;34.78;20.70;;;11.70;99.90;;;;;;5093187;28;20523;-74
2021/01/05 11:21:41;;;;;;;32.75;22.27;;;11.70;99.90;;;;;;5058250;28;20024;-72
2021/01/05 11:24:07;;;;;;;42.45;27.48;;;11.80;99.90;;;;;;5086890;28;20040;-73
2021/01/05 11:26:36;;;;;;;38.60;21.85;;;11.90;99.90;;;;;;5072687;28;20047;-73
2021/01/05 11:29:03;;;;;;;32.60;19.50;;;11.80;99.90;;;;;;5093266;28;20106;-73
2021/01/05 11:31:30;;;;;;;28.45;17.33;;;11.70;99.90;;;;;;5093317;28;20514;-80
2021/01/05 11:33:55;;;;;;;40.30;23.23;;;11.70;99.90;;;;;;5067948;28;20054;-76
2021/01/05 11:36:23;;;;;;;27.10;17.10;;;11.50;99.90;;;;;;5093601;28;20052;-74
2021/01/05 11:38:49;;;;;;;29.52;16.92;;;11.30;99.90;;;;;;5092706;28;20069;-74
2021/01/05 11:41:45;;;;;;;26.33;15.75;;;11.20;99.90;;;;;;5084533;28;20062;-73
2021/01/05 11:44:29;;;;;;;30.48;16.17;;;11.00;99.90;;;;;;5087158;28;20075;-70
2021/01/05 11:46:56;;;;;;;31.50;18.90;;;10.90;99.90;;;;;;5089484;28;20028;-73
2021/01/05 11:49:22;;;;;;;54.03;29.48;;;10.80;99.90;;;;;;5091652;28;20024;-76
2021/01/05 11:51:51;;;;;;;44.67;23.63;;;10.80;99.90;;;;;;5092208;28;20157;-74
2021/01/05 11:54:18;;;;;;;57.13;31.10;;;10.70;99.90;;;;;;5091180;28;20424;-74
2021/01/05 11:56:44;;;;;;;54.00;31.48;;;10.70;99.90;;;;;;5065824;28;20027;-73
2021/01/05 11:59:12;;;;;;;54.67;28.90;;;10.70;99.90;;;;;;5086776;28;20032;-75
2021/01/05 12:01:38;;;;;;;55.53;29.38;;;10.70;99.90;;;;;;5088551;28;20374;-73
2021/01/05 12:04:06;;;;;;;69.05;38.90;;;10.80;99.90;;;;;;5085099;28;20084;-74
2021/01/05 12:06:32;;;;;;;70.45;36.17;;;10.70;99.90;;;;;;5056896;28;20027;-74
2021/01/05 12:08:58;;;;;;;35.50;19.85;;;10.80;99.90;;;;;;5084217;28;20021;-75
2021/01/05 12:11:28;;;;;;;41.45;23.67;;;10.90;99.90;;;;;;5091812;28;20074;-74
2021/01/05 12:13:54;;;;;;;46.05;23.35;;;10.90;99.90;;;;;;5090973;28;20023;-74
2021/01/05 12:16:30;;;;;;;49.25;27.65;;;10.90;99.90;;;;;;5091648;28;20036;-76
2021/01/05 12:18:58;;;;;;;40.67;23.38;;;10.90;99.90;;;;;;5067042;28;20070;-73
2021/01/05 12:21:26;;;;;;;36.22;18.90;;;10.90;99.90;;;;;;5091481;28;20020;-73
2021/01/05 12:23:53;;;;;;;43.65;24.00;;;10.90;99.90;;;;;;5091887;28;20024;-75
2021/01/05 12:26:30;;;;;;;43.55;25.67;;;11.00;99.90;;;;;;5092185;28;20031;-74
2021/01/05 12:28:58;;;;;;;41.67;25.48;;;11.20;99.90;;;;;;5065434;28;20113;-73
2021/01/05 12:31:25;;;;;;;38.70;23.25;;;11.30;99.90;;;;;;5053874;28;20049;-73
2021/01/05 12:33:51;;;;;;;41.33;24.25;;;11.50;99.90;;;;;;5091280;28;20016;-72
2021/01/05 12:36:29;;;;;;;34.33;19.85;;;11.50;99.90;;;;;;5061883;28;20025;-73
2021/01/05 12:38:55;;;;;;;46.25;23.88;;;11.50;99.90;;;;;;5091298;28;20035;-74
2021/01/05 12:41:21;;;;;;;40.55;24.40;;;11.50;99.90;;;;;;5072790;28;20036;-72
2021/01/05 12:43:47;;;;;;;59.15;32.83;;;11.40;99.90;;;;;;5081449;28;20032;-73
2021/01/05 12:46:24;;;;;;;52.70;28.55;;;11.30;99.90;;;;;;5061849;28;20024;-73
2021/01/05 12:48:50;;;;;;;56.80;33.13;;;11.40;99.90;;;;;;5089414;28;20043;-76
2021/01/05 12:51:28;;;;;;;49.40;27.25;;;11.50;99.90;;;;;;5092896;28;20458;-74
2021/01/05 12:53:54;;;;;;;49.50;29.27;;;11.50;99.90;;;;;;5092136;28;20024;-73
2021/01/05 12:56:20;;;;;;;49.05;26.80;;;11.60;99.90;;;;;;5091862;28;20045;-81